sensor_id;sensor_type;location;lat;lon;timestamp;temperature;humidity
13616;DHT22;6879;51.368;6.782;2022-08-19T00:02:06;17.20;99.90
13616;DHT22;6879;51.368;6.782;2022-08-19T00:04:35;17.20;99.90
13616;DHT22;6879;51.368;6.782;2022-08-19T00:07:07;17.10;99.90
13616;DHT22;6879;51.368;6.782;2022-08-19T00:09:35;17.20;99.90
13616;DHT22;6879;51.368;6.782;2022-08-19T00:12:04;17.10;99.90
13616;DHT22;6879;51.368;6.782;2022-08-19T00:14:33;17.20;99.90
13616;DHT22;6879;51.368;6.782;2022-08-19T00:17:03;17.30;99.90
13616;DHT22;6879;51.368;6.782;2022-08-19T00:19:34;17.30;99.90
13616;DHT22;6879;51.368;6.782;2022-08-19T00:22:07;17.30;99.90
13616;DHT22;6879;51.368;6.782;2022-08-19T00:24:36;17.30;99.90
13616;DHT22;6879;51.368;6.782;2022-08-19T00:27:05;17.20;99.90
13616;DHT22;6879;51.368;6.782;2022-08-19T00:29:52;17.20;99.90
13616;DHT22;6879;51.368;6.782;2022-08-19T00:32:21;17.20;99.90
13616;DHT22;6879;51.368;6.782;2022-08-19T00:34:50;17.20;99.90
13616;DHT22;6879;51.368;6.782;2022-08-19T00:37:23;17.30;99.90
13616;DHT22;6879;51.368;6.782;2022-08-19T00:39:54;17.20;99.90
13616;DHT22;6879;51.368;6.782;2022-08-19T00:42:23;17.10;99.90
13616;DHT22;6879;51.368;6.782;2022-08-19T00:44:55;16.90;99.90
13616;DHT22;6879;51.368;6.782;2022-08-19T00:47:24;16.90;99.90
13616;DHT22;6879;51.368;6.782;2022-08-19T00:49:56;16.70;99.90
13616;DHT22;6879;51.368;6.782;2022-08-19T00:52:29;16.70;99.90
13616;DHT22;6879;51.368;6.782;2022-08-19T00:54:58;16.70;99.90
13616;DHT22;6879;51.368;6.782;2022-08-19T00:57:32;16.60;99.90
13616;DHT22;6879;51.368;6.782;2022-08-19T01:00:06;16.50;99.90
13616;DHT22;6879;51.368;6.782;2022-08-19T01:02:36;16.50;99.90
13616;DHT22;6879;51.368;6.782;2022-08-19T01:05:08;16.50;99.90
13616;DHT22;6879;51.368;6.782;2022-08-19T01:07:40;16.40;99.90
13616;DHT22;6879;51.368;6.782;2022-08-19T01:10:19;16.40;99.90
13616;DHT22;6879;51.368;6.782;2022-08-19T01:12:49;16.30;99.90
13616;DHT22;6879;51.368;6.782;2022-08-19T01:15:22;16.30;99.90
13616;DHT22;6879;51.368;6.782;2022-08-19T01:17:53;16.40;99.90
13616;DHT22;6879;51.368;6.782;2022-08-19T01:20:24;16.40;99.90
13616;DHT22;6879;51.368;6.782;2022-08-19T01:22:56;16.30;99.90
13616;DHT22;6879;51.368;6.782;2022-08-19T01:25:29;16.30;99.90
13616;DHT22;6879;51.368;6.782;2022-08-19T01:28:02;16.20;99.90
13616;DHT22;6879;51.368;6.782;2022-08-19T01:30:37;16.10;99.90
13616;DHT22;6879;51.368;6.782;2022-08-19T01:33:10;16.10;99.90
13616;DHT22;6879;51.368;6.782;2022-08-19T01:35:40;16.10;99.90
13616;DHT22;6879;51.368;6.782;2022-08-19T01:38:19;16.10;99.90
13616;DHT22;6879;51.368;6.782;2022-08-19T01:40:50;16.10;99.90
13616;DHT22;6879;51.368;6.782;2022-08-19T01:43:19;16.00;99.90
13616;DHT22;6879;51.368;6.782;2022-08-19T01:45:48;16.00;99.90
13616;DHT22;6879;51.368;6.782;2022-08-19T01:48:17;16.00;99.90
13616;DHT22;6879;51.368;6.782;2022-08-19T01:50:46;16.00;99.90
13616;DHT22;6879;51.368;6.782;2022-08-19T01:53:18;15.90;99.90
13616;DHT22;6879;51.368;6.782;2022-08-19T01:55:48;15.90;99.90
13616;DHT22;6879;51.368;6.782;2022-08-19T01:58:21;15.90;99.90
13616;DHT22;6879;51.368;6.782;2022-08-19T02:00:51;15.90;99.90
13616;DHT22;6879;51.368;6.782;2022-08-19T02:03:20;15.90;99.90
13616;DHT22;6879;51.368;6.782;2022-08-19T02:05:54;15.90;99.90
13616;DHT22;6879;51.368;6.782;2022-08-19T02:08:25;15.80;99.90
13616;DHT22;6879;51.368;6.782;2022-08-19T02:10:57;15.80;99.90
13616;DHT22;6879;51.368;6.782;2022-08-19T02:13:26;15.70;99.90
13616;DHT22;6879;51.368;6.782;2022-08-19T02:15:55;15.80;99.90
13616;DHT22;6879;51.368;6.782;2022-08-19T02:18:26;15.80;99.90
13616;DHT22;6879;51.368;6.782;2022-08-19T02:20:55;15.80;99.90
13616;DHT22;6879;51.368;6.782;2022-08-19T02:23:25;15.70;99.90
13616;DHT22;6879;51.368;6.782;2022-08-19T02:25:54;15.70;99.90
13616;DHT22;6879;51.368;6.782;2022-08-19T02:28:23;15.70;99.90
13616;DHT22;6879;51.368;6.782;2022-08-19T02:30:52;15.60;99.90
13616;DHT22;6879;51.368;6.782;2022-08-19T02:33:20;15.60;99.90
13616;DHT22;6879;51.368;6.782;2022-08-19T02:35:49;15.60;99.90
13616;DHT22;6879;51.368;6.782;2022-08-19T02:38:18;15.60;99.90
13616;DHT22;6879;51.368;6.782;2022-08-19T02:41:00;15.50;99.90
13616;DHT22;6879;51.368;6.782;2022-08-19T02:43:31;15.50;99.90
13616;DHT22;6879;51.368;6.782;2022-08-19T02:46:02;15.50;99.90
13616;DHT22;6879;51.368;6.782;2022-08-19T02:48:38;15.60;99.90
13616;DHT22;6879;51.368;6.782;2022-08-19T02:51:07;15.70;99.90
13616;DHT22;6879;51.368;6.782;2022-08-19T02:53:36;15.60;99.90
13616;DHT22;6879;51.368;6.782;2022-08-19T02:56:08;15.60;99.90
13616;DHT22;6879;51.368;6.782;2022-08-19T02:58:36;15.60;99.90
13616;DHT22;6879;51.368;6.782;2022-08-19T03:01:05;15.50;99.90
13616;DHT22;6879;51.368;6.782;2022-08-19T03:03:34;15.50;99.90
13616;DHT22;6879;51.368;6.782;2022-08-19T03:06:09;15.50;99.90
13616;DHT22;6879;51.368;6.782;2022-08-19T03:08:39;15.50;99.90
13616;DHT22;6879;51.368;6.782;2022-08-19T03:11:14;15.60;99.90
13616;DHT22;6879;51.368;6.782;2022-08-19T03:13:44;15.60;99.90
13616;DHT22;6879;51.368;6.782;2022-08-19T03:16:13;15.60;99.90
13616;DHT22;6879;51.368;6.782;2022-08-19T03:18:42;15.70;99.90
13616;DHT22;6879;51.368;6.782;2022-08-19T03:21:15;15.70;99.90
13616;DHT22;6879;51.368;6.782;2022-08-19T03:23:44;15.60;99.90
13616;DHT22;6879;51.368;6.782;2022-08-19T03:26:14;15.50;99.90
13616;DHT22;6879;51.368;6.782;2022-08-19T03:28:44;15.50;99.90
13616;DHT22;6879;51.368;6.782;2022-08-19T03:31:20;15.40;99.90
13616;DHT22;6879;51.368;6.782;2022-08-19T03:34:10;15.30;99.90
13616;DHT22;6879;51.368;6.782;2022-08-19T03:36:42;15.20;99.90
13616;DHT22;6879;51.368;6.782;2022-08-19T03:39:11;15.20;99.90
13616;DHT22;6879;51.368;6.782;2022-08-19T03:41:43;15.20;99.90
13616;DHT22;6879;51.368;6.782;2022-08-19T03:44:16;15.30;99.90
13616;DHT22;6879;51.368;6.782;2022-08-19T03:46:49;15.40;99.90
13616;DHT22;6879;51.368;6.782;2022-08-19T03:49:19;15.50;99.90
13616;DHT22;6879;51.368;6.782;2022-08-19T03:51:55;15.60;99.90
13616;DHT22;6879;51.368;6.782;2022-08-19T03:54:25;15.70;99.90
13616;DHT22;6879;51.368;6.782;2022-08-19T03:56:56;15.80;99.90
13616;DHT22;6879;51.368;6.782;2022-08-19T03:59:27;15.80;99.90
13616;DHT22;6879;51.368;6.782;2022-08-19T04:01:58;15.80;99.90
13616;DHT22;6879;51.368;6.782;2022-08-19T04:04:27;15.80;99.90
13616;DHT22;6879;51.368;6.782;2022-08-19T04:06:58;15.70;99.90
13616;DHT22;6879;51.368;6.782;2022-08-19T04:09:27;15.60;99.90
13616;DHT22;6879;51.368;6.782;2022-08-19T04:11:57;15.60;99.90
13616;DHT22;6879;51.368;6.782;2022-08-19T04:14:28;15.50;99.90
13616;DHT22;6879;51.368;6.782;2022-08-19T04:16:58;15.50;99.90
13616;DHT22;6879;51.368;6.782;2022-08-19T04:19:30;15.40;99.90
13616;DHT22;6879;51.368;6.782;2022-08-19T04:21:59;15.40;99.90
13616;DHT22;6879;51.368;6.782;2022-08-19T04:24:27;15.30;99.90
13616;DHT22;6879;51.368;6.782;2022-08-19T04:26:59;15.30;99.90
13616;DHT22;6879;51.368;6.782;2022-08-19T04:29:28;15.30;99.90
13616;DHT22;6879;51.368;6.782;2022-08-19T04:31:57;15.30;99.90
13616;DHT22;6879;51.368;6.782;2022-08-19T04:34:36;15.20;99.90
13616;DHT22;6879;51.368;6.782;2022-08-19T04:37:26;15.20;99.90
13616;DHT22;6879;51.368;6.782;2022-08-19T04:40:04;15.20;99.90
13616;DHT22;6879;51.368;6.782;2022-08-19T04:42:55;15.30;99.90
13616;DHT22;6879;51.368;6.782;2022-08-19T04:45:27;15.20;99.90
13616;DHT22;6879;51.368;6.782;2022-08-19T04:48:13;15.30;99.90
13616;DHT22;6879;51.368;6.782;2022-08-19T04:50:53;15.30;99.90
13616;DHT22;6879;51.368;6.782;2022-08-19T04:53:25;15.50;99.90
13616;DHT22;6879;51.368;6.782;2022-08-19T04:56:06;15.60;99.90
13616;DHT22;6879;51.368;6.782;2022-08-19T04:58:39;15.60;99.90
13616;DHT22;6879;51.368;6.782;2022-08-19T05:01:11;15.60;99.90
13616;DHT22;6879;51.368;6.782;2022-08-19T05:03:47;15.60;99.90
13616;DHT22;6879;51.368;6.782;2022-08-19T05:06:53;15.50;99.90
13616;DHT22;6879;51.368;6.782;2022-08-19T05:09:27;15.50;99.90
13616;DHT22;6879;51.368;6.782;2022-08-19T05:12:16;15.50;99.90
13616;DHT22;6879;51.368;6.782;2022-08-19T05:14:47;15.60;99.90
13616;DHT22;6879;51.368;6.782;2022-08-19T05:17:16;15.80;99.90
13616;DHT22;6879;51.368;6.782;2022-08-19T05:19:55;16.00;99.90
13616;DHT22;6879;51.368;6.782;2022-08-19T05:22:43;16.10;99.90
13616;DHT22;6879;51.368;6.782;2022-08-19T05:25:16;16.10;99.90
13616;DHT22;6879;51.368;6.782;2022-08-19T05:27:45;16.20;99.90
13616;DHT22;6879;51.368;6.782;2022-08-19T05:30:17;16.20;99.90
13616;DHT22;6879;51.368;6.782;2022-08-19T05:32:59;16.20;99.90
13616;DHT22;6879;51.368;6.782;2022-08-19T05:35:29;16.30;99.90
13616;DHT22;6879;51.368;6.782;2022-08-19T05:38:01;16.50;99.90
13616;DHT22;6879;51.368;6.782;2022-08-19T05:40:30;16.60;99.90
13616;DHT22;6879;51.368;6.782;2022-08-19T05:42:59;16.70;99.90
13616;DHT22;6879;51.368;6.782;2022-08-19T05:45:37;17.00;99.90
13616;DHT22;6879;51.368;6.782;2022-08-19T05:48:10;17.30;99.90
13616;DHT22;6879;51.368;6.782;2022-08-19T05:50:40;17.40;99.90
13616;DHT22;6879;51.368;6.782;2022-08-19T05:53:09;17.60;99.90
13616;DHT22;6879;51.368;6.782;2022-08-19T05:55:39;17.70;99.90
13616;DHT22;6879;51.368;6.782;2022-08-19T05:58:08;17.90;99.90
13616;DHT22;6879;51.368;6.782;2022-08-19T06:00:39;18.10;99.90
13616;DHT22;6879;51.368;6.782;2022-08-19T06:03:11;18.30;99.90
13616;DHT22;6879;51.368;6.782;2022-08-19T06:05:41;18.40;99.90
13616;DHT22;6879;51.368;6.782;2022-08-19T06:08:19;18.60;99.90
13616;DHT22;6879;51.368;6.782;2022-08-19T06:11:18;18.70;99.90
13616;DHT22;6879;51.368;6.782;2022-08-19T06:13:50;18.80;99.90
13616;DHT22;6879;51.368;6.782;2022-08-19T06:16:28;18.80;99.90
13616;DHT22;6879;51.368;6.782;2022-08-19T06:19:02;18.80;99.90
13616;DHT22;6879;51.368;6.782;2022-08-19T06:21:31;18.90;99.90
13616;DHT22;6879;51.368;6.782;2022-08-19T06:24:00;19.10;99.90
13616;DHT22;6879;51.368;6.782;2022-08-19T06:26:33;19.20;99.90
13616;DHT22;6879;51.368;6.782;2022-08-19T06:29:03;19.40;99.90
13616;DHT22;6879;51.368;6.782;2022-08-19T06:31:35;19.40;99.90
13616;DHT22;6879;51.368;6.782;2022-08-19T06:34:06;19.50;99.90
13616;DHT22;6879;51.368;6.782;2022-08-19T06:36:36;19.60;99.90
13616;DHT22;6879;51.368;6.782;2022-08-19T06:39:12;19.70;99.90
13616;DHT22;6879;51.368;6.782;2022-08-19T06:41:46;19.80;99.90
13616;DHT22;6879;51.368;6.782;2022-08-19T06:44:22;19.90;99.90
13616;DHT22;6879;51.368;6.782;2022-08-19T06:46:54;19.90;99.90
13616;DHT22;6879;51.368;6.782;2022-08-19T06:49:24;20.10;99.90
13616;DHT22;6879;51.368;6.782;2022-08-19T06:51:59;20.10;99.90
13616;DHT22;6879;51.368;6.782;2022-08-19T06:54:29;20.20;99.90
13616;DHT22;6879;51.368;6.782;2022-08-19T06:57:04;20.20;99.90
13616;DHT22;6879;51.368;6.782;2022-08-19T06:59:38;20.40;99.90
13616;DHT22;6879;51.368;6.782;2022-08-19T07:02:19;20.40;99.90
13616;DHT22;6879;51.368;6.782;2022-08-19T07:04:48;20.20;99.90
13616;DHT22;6879;51.368;6.782;2022-08-19T07:07:19;20.20;99.90
13616;DHT22;6879;51.368;6.782;2022-08-19T07:09:51;20.30;99.90
13616;DHT22;6879;51.368;6.782;2022-08-19T07:12:32;20.40;99.90
13616;DHT22;6879;51.368;6.782;2022-08-19T07:15:05;20.50;99.90
13616;DHT22;6879;51.368;6.782;2022-08-19T07:17:37;20.70;99.90
13616;DHT22;6879;51.368;6.782;2022-08-19T07:20:13;20.80;99.90
13616;DHT22;6879;51.368;6.782;2022-08-19T07:22:44;21.00;99.90
13616;DHT22;6879;51.368;6.782;2022-08-19T07:25:14;21.30;99.90
13616;DHT22;6879;51.368;6.782;2022-08-19T07:27:48;21.50;99.90
13616;DHT22;6879;51.368;6.782;2022-08-19T07:30:20;21.60;99.90
13616;DHT22;6879;51.368;6.782;2022-08-19T07:32:54;21.80;99.90
13616;DHT22;6879;51.368;6.782;2022-08-19T07:35:24;22.00;99.20
13616;DHT22;6879;51.368;6.782;2022-08-19T07:37:58;22.10;98.70
13616;DHT22;6879;51.368;6.782;2022-08-19T07:40:37;22.30;98.20
13616;DHT22;6879;51.368;6.782;2022-08-19T07:43:09;22.60;96.60
13616;DHT22;6879;51.368;6.782;2022-08-19T07:45:44;22.70;96.00
13616;DHT22;6879;51.368;6.782;2022-08-19T07:48:16;22.80;95.50
13616;DHT22;6879;51.368;6.782;2022-08-19T07:50:52;22.90;95.70
13616;DHT22;6879;51.368;6.782;2022-08-19T07:53:24;23.00;95.40
13616;DHT22;6879;51.368;6.782;2022-08-19T07:55:53;23.10;95.50
13616;DHT22;6879;51.368;6.782;2022-08-19T07:58:27;23.20;95.20
13616;DHT22;6879;51.368;6.782;2022-08-19T08:00:57;23.40;95.00
13616;DHT22;6879;51.368;6.782;2022-08-19T08:03:29;23.60;93.90
13616;DHT22;6879;51.368;6.782;2022-08-19T08:06:15;23.50;94.20
13616;DHT22;6879;51.368;6.782;2022-08-19T08:09:06;23.60;94.20
13616;DHT22;6879;51.368;6.782;2022-08-19T08:11:48;24.00;93.60
13616;DHT22;6879;51.368;6.782;2022-08-19T08:14:21;24.40;92.30
13616;DHT22;6879;51.368;6.782;2022-08-19T08:17:02;24.60;90.80
13616;DHT22;6879;51.368;6.782;2022-08-19T08:19:39;24.70;90.30
13616;DHT22;6879;51.368;6.782;2022-08-19T08:22:13;24.70;90.60
13616;DHT22;6879;51.368;6.782;2022-08-19T08:25:07;24.60;90.80
13616;DHT22;6879;51.368;6.782;2022-08-19T08:27:42;24.50;90.80
13616;DHT22;6879;51.368;6.782;2022-08-19T08:30:23;24.30;91.20
13616;DHT22;6879;51.368;6.782;2022-08-19T08:32:57;24.10;91.70
13616;DHT22;6879;51.368;6.782;2022-08-19T08:35:27;24.20;91.40
13616;DHT22;6879;51.368;6.782;2022-08-19T08:38:02;24.40;90.40
13616;DHT22;6879;51.368;6.782;2022-08-19T08:40:39;24.40;89.50
13616;DHT22;6879;51.368;6.782;2022-08-19T08:43:18;24.30;89.70
13616;DHT22;6879;51.368;6.782;2022-08-19T08:45:54;24.40;89.70
13616;DHT22;6879;51.368;6.782;2022-08-19T08:48:35;24.40;89.90
13616;DHT22;6879;51.368;6.782;2022-08-19T08:51:12;24.40;87.90
13616;DHT22;6879;51.368;6.782;2022-08-19T08:53:49;24.80;88.30
13616;DHT22;6879;51.368;6.782;2022-08-19T08:56:23;24.90;88.10
13616;DHT22;6879;51.368;6.782;2022-08-19T08:59:03;25.00;87.50
13616;DHT22;6879;51.368;6.782;2022-08-19T09:01:36;25.10;87.20
13616;DHT22;6879;51.368;6.782;2022-08-19T09:04:24;25.20;87.10
13616;DHT22;6879;51.368;6.782;2022-08-19T09:07:24;25.50;85.60
13616;DHT22;6879;51.368;6.782;2022-08-19T09:10:31;25.80;84.90
13616;DHT22;6879;51.368;6.782;2022-08-19T09:13:27;26.30;83.00
13616;DHT22;6879;51.368;6.782;2022-08-19T09:16:07;26.50;81.70
13616;DHT22;6879;51.368;6.782;2022-08-19T09:18:40;26.20;82.70
13616;DHT22;6879;51.368;6.782;2022-08-19T09:21:12;26.20;82.60
13616;DHT22;6879;51.368;6.782;2022-08-19T09:24:20;26.20;82.30
13616;DHT22;6879;51.368;6.782;2022-08-19T09:27:31;26.20;82.40
13616;DHT22;6879;51.368;6.782;2022-08-19T09:30:49;26.30;81.90
13616;DHT22;6879;51.368;6.782;2022-08-19T09:33:25;26.30;81.20
13616;DHT22;6879;51.368;6.782;2022-08-19T09:36:13;26.00;82.20
13616;DHT22;6879;51.368;6.782;2022-08-19T09:39:04;26.30;82.40
13616;DHT22;6879;51.368;6.782;2022-08-19T09:41:45;26.60;81.70
13616;DHT22;6879;51.368;6.782;2022-08-19T09:44:21;26.80;81.00
13616;DHT22;6879;51.368;6.782;2022-08-19T09:46:53;27.10;80.50
13616;DHT22;6879;51.368;6.782;2022-08-19T09:49:35;27.40;79.80
13616;DHT22;6879;51.368;6.782;2022-08-19T09:52:19;27.70;78.60
13616;DHT22;6879;51.368;6.782;2022-08-19T09:55:28;27.80;78.50
13616;DHT22;6879;51.368;6.782;2022-08-19T09:58:20;27.20;79.30
13616;DHT22;6879;51.368;6.782;2022-08-19T10:01:23;26.80;80.60
13616;DHT22;6879;51.368;6.782;2022-08-19T10:03:59;27.20;80.00
13616;DHT22;6879;51.368;6.782;2022-08-19T10:06:55;27.60;78.80
13616;DHT22;6879;51.368;6.782;2022-08-19T10:09:38;28.30;77.40
13616;DHT22;6879;51.368;6.782;2022-08-19T10:12:34;28.60;76.30
13616;DHT22;6879;51.368;6.782;2022-08-19T10:15:37;29.10;75.30
13616;DHT22;6879;51.368;6.782;2022-08-19T10:18:15;29.10;74.30
13616;DHT22;6879;51.368;6.782;2022-08-19T10:20:50;29.10;74.60
13616;DHT22;6879;51.368;6.782;2022-08-19T10:23:36;29.20;74.40
13616;DHT22;6879;51.368;6.782;2022-08-19T10:26:09;29.00;74.30
13616;DHT22;6879;51.368;6.782;2022-08-19T10:28:52;28.60;74.90
13616;DHT22;6879;51.368;6.782;2022-08-19T10:31:43;28.10;76.00
13616;DHT22;6879;51.368;6.782;2022-08-19T10:34:30;27.90;76.80
13616;DHT22;6879;51.368;6.782;2022-08-19T10:37:01;28.90;75.30
13616;DHT22;6879;51.368;6.782;2022-08-19T10:39:46;29.00;74.00
13616;DHT22;6879;51.368;6.782;2022-08-19T10:42:26;28.90;74.40
13616;DHT22;6879;51.368;6.782;2022-08-19T10:44:58;28.70;73.90
13616;DHT22;6879;51.368;6.782;2022-08-19T10:47:33;28.70;74.80
13616;DHT22;6879;51.368;6.782;2022-08-19T10:50:05;28.90;74.20
13616;DHT22;6879;51.368;6.782;2022-08-19T10:53:06;28.60;74.50
13616;DHT22;6879;51.368;6.782;2022-08-19T10:55:55;27.70;76.20
13616;DHT22;6879;51.368;6.782;2022-08-19T10:59:05;26.90;77.50
13616;DHT22;6879;51.368;6.782;2022-08-19T11:01:44;27.50;77.30
13616;DHT22;6879;51.368;6.782;2022-08-19T11:04:49;27.30;77.30
13616;DHT22;6879;51.368;6.782;2022-08-19T11:07:40;27.50;76.70
13616;DHT22;6879;51.368;6.782;2022-08-19T11:10:14;27.70;76.00
13616;DHT22;6879;51.368;6.782;2022-08-19T11:12:50;27.90;75.10
13616;DHT22;6879;51.368;6.782;2022-08-19T11:15:28;28.70;73.80
13616;DHT22;6879;51.368;6.782;2022-08-19T11:18:03;28.80;73.30
13616;DHT22;6879;51.368;6.782;2022-08-19T11:20:43;28.10;74.00
13616;DHT22;6879;51.368;6.782;2022-08-19T11:23:15;28.20;74.00
13616;DHT22;6879;51.368;6.782;2022-08-19T11:25:53;29.40;71.60
13616;DHT22;6879;51.368;6.782;2022-08-19T11:28:26;30.00;70.50
13616;DHT22;6879;51.368;6.782;2022-08-19T11:31:02;29.40;71.10
13616;DHT22;6879;51.368;6.782;2022-08-19T11:33:38;29.10;71.70
13616;DHT22;6879;51.368;6.782;2022-08-19T11:36:33;28.40;72.60
13616;DHT22;6879;51.368;6.782;2022-08-19T11:42:22;31.40;67.20
13616;DHT22;6879;51.368;6.782;2022-08-19T11:45:09;32.60;64.90
13616;DHT22;6879;51.368;6.782;2022-08-19T11:47:41;31.60;65.50
13616;DHT22;6879;51.368;6.782;2022-08-19T11:50:11;31.40;66.20
13616;DHT22;6879;51.368;6.782;2022-08-19T11:52:42;32.40;64.90
13616;DHT22;6879;51.368;6.782;2022-08-19T11:55:14;31.70;65.90
13616;DHT22;6879;51.368;6.782;2022-08-19T11:57:43;32.10;65.20
13616;DHT22;6879;51.368;6.782;2022-08-19T12:00:20;32.40;64.80
13616;DHT22;6879;51.368;6.782;2022-08-19T12:03:14;32.90;63.80
13616;DHT22;6879;51.368;6.782;2022-08-19T12:05:47;32.00;65.10
13616;DHT22;6879;51.368;6.782;2022-08-19T12:08:19;31.60;65.10
13616;DHT22;6879;51.368;6.782;2022-08-19T12:10:48;32.20;64.30
13616;DHT22;6879;51.368;6.782;2022-08-19T12:13:17;32.80;64.10
13616;DHT22;6879;51.368;6.782;2022-08-19T12:15:47;33.10;64.10
13616;DHT22;6879;51.368;6.782;2022-08-19T12:22:30;34.40;60.00
13616;DHT22;6879;51.368;6.782;2022-08-19T12:25:06;34.40;58.90
13616;DHT22;6879;51.368;6.782;2022-08-19T12:27:39;34.20;59.90
13616;DHT22;6879;51.368;6.782;2022-08-19T12:30:27;34.10;60.30
13616;DHT22;6879;51.368;6.782;2022-08-19T12:33:03;34.00;60.10
13616;DHT22;6879;51.368;6.782;2022-08-19T12:35:39;33.90;60.00
13616;DHT22;6879;51.368;6.782;2022-08-19T12:38:15;34.50;58.90
13616;DHT22;6879;51.368;6.782;2022-08-19T12:40:56;34.90;58.30
13616;DHT22;6879;51.368;6.782;2022-08-19T12:43:39;34.20;58.90
13616;DHT22;6879;51.368;6.782;2022-08-19T12:46:17;35.60;57.20
13616;DHT22;6879;51.368;6.782;2022-08-19T12:50:09;36.40;55.70
13616;DHT22;6879;51.368;6.782;2022-08-19T12:52:40;36.40;54.60
13616;DHT22;6879;51.368;6.782;2022-08-19T12:55:10;35.90;55.40
13616;DHT22;6879;51.368;6.782;2022-08-19T12:57:41;34.90;57.00
13616;DHT22;6879;51.368;6.782;2022-08-19T13:00:13;34.50;57.50
13616;DHT22;6879;51.368;6.782;2022-08-19T13:02:45;34.70;57.20
13616;DHT22;6879;51.368;6.782;2022-08-19T13:05:16;34.80;57.50
13616;DHT22;6879;51.368;6.782;2022-08-19T13:07:58;34.80;57.40
13616;DHT22;6879;51.368;6.782;2022-08-19T13:10:30;34.70;57.20
13616;DHT22;6879;51.368;6.782;2022-08-19T13:13:08;35.40;55.80
13616;DHT22;6879;51.368;6.782;2022-08-19T13:15:40;36.10;54.20
13616;DHT22;6879;51.368;6.782;2022-08-19T13:18:10;36.40;53.50
13616;DHT22;6879;51.368;6.782;2022-08-19T13:20:40;35.70;53.70
13616;DHT22;6879;51.368;6.782;2022-08-19T13:23:44;35.40;55.00
13616;DHT22;6879;51.368;6.782;2022-08-19T13:26:59;36.90;52.60
13616;DHT22;6879;51.368;6.782;2022-08-19T13:33:49;37.30;52.50
13616;DHT22;6879;51.368;6.782;2022-08-19T13:36:18;38.70;50.90
13616;DHT22;6879;51.368;6.782;2022-08-19T13:38:49;38.40;50.50
13616;DHT22;6879;51.368;6.782;2022-08-19T13:41:19;37.20;52.20
13616;DHT22;6879;51.368;6.782;2022-08-19T13:43:47;37.50;52.40
13616;DHT22;6879;51.368;6.782;2022-08-19T13:46:16;37.20;52.60
13616;DHT22;6879;51.368;6.782;2022-08-19T13:48:50;36.10;54.40
13616;DHT22;6879;51.368;6.782;2022-08-19T13:51:21;35.30;55.40
13616;DHT22;6879;51.368;6.782;2022-08-19T13:53:50;34.40;56.60
13616;DHT22;6879;51.368;6.782;2022-08-19T13:56:20;35.20;56.20
13616;DHT22;6879;51.368;6.782;2022-08-19T13:58:52;36.20;55.30
13616;DHT22;6879;51.368;6.782;2022-08-19T14:01:25;36.70;54.20
13616;DHT22;6879;51.368;6.782;2022-08-19T14:03:56;37.60;53.00
13616;DHT22;6879;51.368;6.782;2022-08-19T14:06:25;38.10;52.10
13616;DHT22;6879;51.368;6.782;2022-08-19T14:08:53;38.60;51.20
13616;DHT22;6879;51.368;6.782;2022-08-19T14:11:32;37.70;52.80
13616;DHT22;6879;51.368;6.782;2022-08-19T14:14:06;36.20;55.00
13616;DHT22;6879;51.368;6.782;2022-08-19T14:16:42;35.30;56.20
13616;DHT22;6879;51.368;6.782;2022-08-19T14:19:16;35.90;54.70
13616;DHT22;6879;51.368;6.782;2022-08-19T14:21:46;36.20;55.10
13616;DHT22;6879;51.368;6.782;2022-08-19T14:24:18;34.10;58.40
13616;DHT22;6879;51.368;6.782;2022-08-19T14:26:50;33.00;59.90
13616;DHT22;6879;51.368;6.782;2022-08-19T14:29:20;32.80;61.10
13616;DHT22;6879;51.368;6.782;2022-08-19T14:31:53;33.20;60.10
13616;DHT22;6879;51.368;6.782;2022-08-19T14:34:25;34.00;58.90
13616;DHT22;6879;51.368;6.782;2022-08-19T14:36:54;33.50;59.60
13616;DHT22;6879;51.368;6.782;2022-08-19T14:39:23;33.20;60.60
13616;DHT22;6879;51.368;6.782;2022-08-19T14:41:53;34.00;59.30
13616;DHT22;6879;51.368;6.782;2022-08-19T14:44:23;33.20;60.30
13616;DHT22;6879;51.368;6.782;2022-08-19T14:46:52;33.10;60.70
13616;DHT22;6879;51.368;6.782;2022-08-19T14:49:29;34.40;58.70
13616;DHT22;6879;51.368;6.782;2022-08-19T14:52:09;35.50;56.00
13616;DHT22;6879;51.368;6.782;2022-08-19T14:54:38;36.00;55.00
13616;DHT22;6879;51.368;6.782;2022-08-19T14:57:07;35.60;54.90
13616;DHT22;6879;51.368;6.782;2022-08-19T14:59:40;36.30;54.30
13616;DHT22;6879;51.368;6.782;2022-08-19T15:02:10;36.50;53.50
13616;DHT22;6879;51.368;6.782;2022-08-19T15:05:01;36.70;53.30
13616;DHT22;6879;51.368;6.782;2022-08-19T15:07:30;36.40;52.70
13616;DHT22;6879;51.368;6.782;2022-08-19T15:09:59;35.80;53.90
13616;DHT22;6879;51.368;6.782;2022-08-19T15:12:28;35.60;54.30
13616;DHT22;6879;51.368;6.782;2022-08-19T15:14:57;35.80;53.80
13616;DHT22;6879;51.368;6.782;2022-08-19T15:17:26;35.80;53.00
13616;DHT22;6879;51.368;6.782;2022-08-19T15:20:18;34.90;53.70
13616;DHT22;6879;51.368;6.782;2022-08-19T15:22:48;34.40;54.60
13616;DHT22;6879;51.368;6.782;2022-08-19T15:25:18;34.40;54.50
13616;DHT22;6879;51.368;6.782;2022-08-19T15:27:48;35.70;54.10
13616;DHT22;6879;51.368;6.782;2022-08-19T15:30:20;36.30;53.60
13616;DHT22;6879;51.368;6.782;2022-08-19T15:32:49;35.60;53.70
13616;DHT22;6879;51.368;6.782;2022-08-19T15:35:21;36.50;52.40
13616;DHT22;6879;51.368;6.782;2022-08-19T15:37:51;37.10;51.40
13616;DHT22;6879;51.368;6.782;2022-08-19T15:40:22;37.20;51.60
13616;DHT22;6879;51.368;6.782;2022-08-19T15:42:51;37.40;51.80
13616;DHT22;6879;51.368;6.782;2022-08-19T15:45:21;37.10;52.40
13616;DHT22;6879;51.368;6.782;2022-08-19T15:47:58;37.80;51.30
13616;DHT22;6879;51.368;6.782;2022-08-19T15:50:30;38.50;49.90
13616;DHT22;6879;51.368;6.782;2022-08-19T15:53:04;36.70;50.10
13616;DHT22;6879;51.368;6.782;2022-08-19T15:55:35;36.50;51.10
13616;DHT22;6879;51.368;6.782;2022-08-19T15:58:06;36.70;51.20
13616;DHT22;6879;51.368;6.782;2022-08-19T16:00:56;37.20;49.50
13616;DHT22;6879;51.368;6.782;2022-08-19T16:03:43;36.40;50.20
13616;DHT22;6879;51.368;6.782;2022-08-19T16:06:32;35.10;52.40
13616;DHT22;6879;51.368;6.782;2022-08-19T16:09:02;34.40;53.60
13616;DHT22;6879;51.368;6.782;2022-08-19T16:11:33;34.20;54.10
13616;DHT22;6879;51.368;6.782;2022-08-19T16:14:06;35.00;53.20
13616;DHT22;6879;51.368;6.782;2022-08-19T16:16:36;33.80;54.90
13616;DHT22;6879;51.368;6.782;2022-08-19T16:19:07;33.00;56.30
13616;DHT22;6879;51.368;6.782;2022-08-19T16:21:39;32.80;56.90
13616;DHT22;6879;51.368;6.782;2022-08-19T16:24:10;32.30;58.30
13616;DHT22;6879;51.368;6.782;2022-08-19T16:26:40;32.20;58.70
13616;DHT22;6879;51.368;6.782;2022-08-19T16:29:10;31.40;60.40
13616;DHT22;6879;51.368;6.782;2022-08-19T16:31:42;32.20;59.30
13616;DHT22;6879;51.368;6.782;2022-08-19T16:34:13;33.50;58.30
13616;DHT22;6879;51.368;6.782;2022-08-19T16:36:44;33.00;58.80
13616;DHT22;6879;51.368;6.782;2022-08-19T16:39:15;33.30;58.90
13616;DHT22;6879;51.368;6.782;2022-08-19T16:41:45;33.10;59.20
13616;DHT22;6879;51.368;6.782;2022-08-19T16:44:15;33.10;59.40
13616;DHT22;6879;51.368;6.782;2022-08-19T16:46:47;32.80;59.90
13616;DHT22;6879;51.368;6.782;2022-08-19T16:49:25;32.70;60.00